Terminal Aerodrome Forecast
Issued by NWS

Home | Current Version | Previous Version | Graphics & Text | Print | Product List | Glossary On
Versions: 1 2 3 4 5 6 7 8 9 10 11 12
000
FTUS43 KMPX 280520
TAFAXN
TAF
KAXN 280520Z 2806/2906 30003KT P6SM OVC250
     FM281200 35006KT P6SM -RA BKN050 OVC090
     FM281500 35009KT P6SM BKN060 BKN090
     FM281700 35009KT P6SM SCT040 SCT100
     FM282000 35010G15KT P6SM SKC
     FM290100 36005KT P6SM SKC=

USA.gov is the U.S. government's official web portal to all federal, state and local government web resources and services.